createdAt,value
2018-04-10T00:01:22.620Z,82.40
2018-04-10T00:03:50.938Z,82.30
2018-04-10T00:06:18.415Z,82.10
2018-04-10T00:08:45.958Z,82.30
2018-04-10T00:11:13.424Z,82.40
2018-04-10T00:13:40.921Z,82.50
2018-04-10T00:16:09.152Z,83.00
2018-04-10T00:18:36.626Z,82.70
2018-04-10T00:21:04.152Z,82.60
2018-04-10T00:23:31.645Z,82.70
2018-04-10T00:25:59.140Z,82.70
2018-04-10T00:28:27.368Z,83.70
2018-04-10T00:30:54.902Z,83.70
2018-04-10T00:33:22.458Z,84.00
2018-04-10T00:35:49.947Z,84.10
2018-04-10T00:38:17.411Z,84.10
2018-04-10T00:40:44.891Z,84.00
2018-04-10T00:43:13.128Z,84.20
2018-04-10T00:45:40.622Z,83.70
2018-04-10T00:48:09.624Z,84.00
2018-04-10T00:50:37.889Z,84.10
2018-04-10T00:53:18.128Z,84.30
2018-04-10T00:55:45.626Z,84.20
2018-04-10T00:58:13.921Z,84.40
2018-04-10T01:00:41.444Z,84.30
2018-04-10T01:03:09.676Z,85.30
2018-04-10T01:05:37.150Z,84.40
2018-04-10T01:08:04.634Z,84.30
2018-04-10T01:10:32.864Z,84.40
2018-04-10T01:13:00.357Z,84.30
2018-04-10T01:15:27.832Z,84.30
2018-04-10T01:17:56.093Z,84.50
2018-04-10T01:20:23.570Z,84.50
2018-04-10T01:22:51.930Z,84.60
2018-04-10T01:25:20.910Z,84.70
2018-04-10T01:27:48.420Z,84.60
2018-04-10T01:30:16.081Z,84.80
2018-04-10T01:32:43.568Z,85.10
2018-04-10T01:35:11.049Z,85.30
2018-04-10T01:37:38.883Z,85.30
2018-04-10T01:40:06.400Z,85.20
2018-04-10T01:42:34.638Z,85.50
2018-04-10T01:45:02.114Z,85.30
2018-04-10T01:47:29.603Z,85.30
2018-04-10T01:49:57.074Z,86.00
2018-04-10T01:52:24.579Z,85.30
2018-04-10T01:54:52.823Z,85.40
2018-04-10T01:57:20.315Z,85.40
2018-04-10T01:59:47.785Z,85.40
2018-04-10T02:02:16.051Z,85.60
2018-04-10T02:04:44.306Z,86.20
2018-04-10T02:07:11.776Z,85.60
2018-04-10T02:09:39.309Z,85.80
2018-04-10T02:12:06.786Z,85.80
2018-04-10T02:14:34.264Z,85.60
2018-04-10T02:17:02.536Z,86.00
2018-04-10T02:19:30.788Z,86.10
2018-04-10T02:21:58.266Z,85.80
2018-04-10T02:24:26.518Z,86.10
2018-04-10T02:26:53.979Z,85.90
2018-04-10T02:29:21.467Z,86.00
2018-04-10T02:31:49.730Z,86.70
2018-04-10T02:34:17.203Z,86.60
2018-04-10T02:36:45.444Z,86.80
2018-04-10T02:39:12.966Z,86.70
2018-04-10T02:41:40.524Z,87.00
2018-04-10T02:44:08.007Z,87.20
2018-04-10T02:46:35.500Z,87.80
2018-04-10T02:49:03.778Z,88.50
2018-04-10T02:51:31.235Z,88.20
2018-04-10T02:53:59.512Z,87.90
2018-04-10T02:56:27.747Z,88.20
2018-04-10T02:58:55.259Z,88.20
2018-04-10T03:01:23.501Z,88.50
2018-04-10T03:03:51.000Z,88.50
2018-04-10T03:06:18.470Z,88.20
2018-04-10T03:08:45.952Z,88.30
2018-04-10T03:11:13.423Z,88.20
2018-04-10T03:13:40.915Z,88.50
2018-04-10T03:16:09.179Z,88.30
2018-04-10T03:18:36.760Z,88.30
2018-04-10T03:21:04.291Z,88.80
2018-04-10T03:23:31.818Z,88.50
2018-04-10T03:25:59.288Z,88.70
2018-04-10T03:28:26.791Z,89.20
2018-04-10T03:30:55.028Z,89.10
2018-04-10T03:33:24.035Z,89.30
2018-04-10T03:35:51.508Z,89.10
2018-04-10T03:38:19.764Z,89.30
2018-04-10T03:40:47.340Z,89.20
2018-04-10T03:43:15.599Z,89.00
2018-04-10T03:45:43.070Z,88.80
2018-04-10T03:48:11.333Z,89.50
2018-04-10T03:50:39.576Z,89.40
2018-04-10T03:53:08.032Z,89.30
2018-04-10T03:55:35.493Z,89.60
2018-04-10T03:58:02.999Z,90.00
2018-04-10T04:00:30.565Z,90.10
2018-04-10T04:02:58.111Z,90.20
2018-04-10T04:05:25.701Z,90.20
2018-04-10T04:07:53.942Z,90.40
2018-04-10T04:10:22.179Z,90.40
2018-04-10T04:12:49.639Z,90.60
2018-04-10T04:15:17.136Z,90.70
2018-04-10T04:17:45.370Z,90.70
2018-04-10T04:20:24.839Z,90.80
2018-04-10T04:22:52.299Z,90.80
2018-04-10T04:25:19.781Z,90.80
2018-04-10T04:27:47.253Z,90.60
2018-04-10T04:30:15.510Z,91.10
2018-04-10T04:32:43.081Z,91.10
2018-04-10T04:35:11.327Z,91.60
2018-04-10T04:37:38.807Z,91.60
2018-04-10T04:40:06.283Z,91.70
2018-04-10T04:42:33.761Z,91.60
2018-04-10T04:45:01.273Z,91.50
2018-04-10T04:47:29.353Z,91.60
2018-04-10T04:49:57.603Z,91.50
2018-04-10T04:52:25.941Z,91.60
2018-04-10T04:54:53.422Z,91.60
2018-04-10T04:57:20.956Z,91.50
2018-04-10T04:59:48.444Z,91.40
2018-04-10T05:02:15.927Z,91.40
2018-04-10T05:04:43.428Z,91.40
2018-04-10T05:07:10.930Z,91.40
2018-04-10T05:09:38.426Z,91.40
2018-04-10T05:12:06.657Z,91.30
2018-04-10T05:14:34.146Z,91.30
2018-04-10T05:17:02.403Z,91.40
2018-04-10T05:19:29.891Z,91.40
2018-04-10T05:21:58.173Z,91.40
2018-04-10T05:24:25.671Z,91.40
2018-04-10T05:26:53.136Z,91.60
2018-04-10T05:29:20.627Z,91.60
2018-04-10T05:31:48.892Z,91.70
2018-04-10T05:34:16.425Z,91.60
2018-04-10T05:36:43.959Z,91.70
2018-04-10T05:39:11.478Z,91.60
2018-04-10T05:41:39.749Z,91.60
2018-04-10T05:44:08.014Z,91.80
2018-04-10T05:46:35.493Z,91.50
2018-04-10T05:49:03.756Z,91.30
2018-04-10T05:51:32.052Z,91.40
2018-04-10T05:54:00.425Z,91.20
2018-04-10T05:56:28.665Z,91.20
2018-04-10T05:58:56.179Z,91.10
2018-04-10T06:01:23.648Z,91.10
2018-04-10T06:03:51.158Z,91.00
2018-04-10T06:06:18.687Z,91.20
2018-04-10T06:08:46.157Z,91.00
2018-04-10T06:11:15.165Z,90.90
2018-04-10T06:13:42.725Z,90.90
2018-04-10T06:16:10.242Z,91.10
2018-04-10T06:18:38.564Z,91.40
2018-04-10T06:21:06.124Z,91.10
2018-04-10T06:23:33.681Z,91.30
2018-04-10T06:26:01.209Z,91.20
2018-04-10T06:28:28.677Z,91.20
2018-04-10T06:30:56.231Z,91.10
2018-04-10T06:33:23.698Z,91.20
2018-04-10T06:35:51.189Z,91.00
2018-04-10T06:38:19.425Z,91.00
2018-04-10T06:40:47.045Z,90.90
2018-04-10T06:43:14.513Z,90.80
2018-04-10T06:45:42.062Z,90.80
2018-04-10T06:48:09.571Z,90.80
2018-04-10T06:50:37.056Z,90.80
2018-04-10T06:53:05.317Z,90.70
2018-04-10T06:55:33.575Z,90.70
2018-04-10T06:58:01.060Z,90.60
2018-04-10T07:00:29.311Z,90.40
2018-04-10T07:02:57.636Z,90.70
2018-04-10T07:05:25.104Z,90.70
2018-04-10T07:07:52.608Z,90.80
2018-04-10T07:10:20.099Z,90.80
2018-04-10T07:12:47.591Z,90.80
2018-04-10T07:15:15.063Z,90.70
2018-04-10T07:17:42.580Z,90.60
2018-04-10T07:20:10.049Z,90.80
2018-04-10T07:22:37.552Z,90.70
2018-04-10T07:25:05.019Z,90.80
2018-04-10T07:27:33.275Z,90.80
2018-04-10T07:30:00.740Z,90.80
2018-04-10T07:32:28.338Z,90.60
2018-04-10T07:34:55.815Z,90.50
2018-04-10T07:37:23.304Z,90.50
2018-04-10T07:39:50.813Z,90.40
2018-04-10T07:42:19.046Z,90.40
2018-04-10T07:44:47.290Z,90.30
2018-04-10T07:47:14.920Z,90.30
2018-04-10T07:49:42.404Z,90.30
2018-04-10T07:52:09.866Z,90.20
2018-04-10T07:54:37.351Z,90.20
2018-04-10T07:57:04.816Z,90.20
2018-04-10T07:59:32.300Z,90.20
2018-04-10T08:01:59.830Z,90.20
2018-04-10T08:04:27.330Z,90.10
2018-04-10T08:06:54.800Z,90.00
2018-04-10T08:09:22.288Z,90.00
2018-04-10T08:11:49.808Z,89.30
2018-04-10T08:14:17.303Z,89.00
2018-04-10T08:16:44.778Z,88.90
2018-04-10T08:19:12.259Z,88.80
2018-04-10T08:21:40.491Z,88.50
2018-04-10T08:24:08.111Z,88.50
2018-04-10T08:26:35.588Z,88.40
2018-04-10T08:29:03.092Z,88.60
2018-04-10T08:31:31.331Z,88.90
2018-04-10T08:33:58.854Z,88.90
2018-04-10T08:36:26.315Z,88.90
2018-04-10T08:38:53.838Z,88.80
2018-04-10T08:41:22.087Z,89.00
2018-04-10T08:43:49.560Z,89.00
2018-04-10T08:46:17.133Z,88.40
2018-04-10T08:48:44.700Z,88.00
2018-04-10T08:51:12.963Z,87.40
2018-04-10T08:53:40.435Z,87.20
2018-04-10T08:56:08.716Z,86.70
2018-04-10T08:58:36.955Z,86.40
2018-04-10T09:01:04.534Z,86.40
2018-04-10T09:03:32.758Z,85.60
2018-04-10T09:06:00.241Z,85.90
2018-04-10T09:08:27.721Z,85.30
2018-04-10T09:10:56.039Z,85.00
2018-04-10T09:13:23.508Z,85.00
2018-04-10T09:15:50.999Z,84.90
2018-04-10T09:18:18.470Z,84.70
2018-04-10T09:20:46.735Z,83.60
2018-04-10T09:23:14.972Z,83.30
2018-04-10T09:25:42.518Z,83.30
2018-04-10T09:28:10.862Z,83.10
2018-04-10T09:30:39.133Z,82.40
2018-04-10T09:33:06.691Z,82.40
2018-04-10T09:35:34.949Z,80.50
2018-04-10T09:38:02.429Z,80.40
2018-04-10T09:40:30.697Z,80.10
2018-04-10T09:42:58.985Z,78.80
2018-04-10T09:45:27.245Z,78.70
2018-04-10T09:47:54.723Z,78.80
2018-04-10T09:50:22.981Z,78.40
2018-04-10T09:52:51.223Z,78.10
2018-04-10T09:55:18.711Z,78.80
2018-04-10T09:57:46.284Z,77.80
2018-04-10T10:00:14.596Z,77.40
2018-04-10T10:02:42.060Z,77.40
2018-04-10T10:05:09.563Z,76.60
2018-04-10T10:07:38.583Z,75.50
2018-04-10T10:10:06.834Z,74.90
2018-04-10T10:12:34.305Z,74.80
2018-04-10T10:15:02.554Z,74.30
2018-04-10T10:17:30.020Z,74.20
2018-04-10T10:19:57.686Z,73.40
2018-04-10T10:22:25.148Z,73.80
2018-04-10T10:24:52.645Z,72.80
2018-04-10T10:27:20.207Z,71.90
2018-04-10T10:29:48.518Z,70.60
2018-04-10T10:32:15.981Z,70.90
2018-04-10T10:34:43.570Z,70.10
2018-04-10T10:37:11.791Z,68.20
2018-04-10T10:39:39.291Z,68.20
2018-04-10T10:42:06.782Z,67.60
2018-04-10T10:44:34.266Z,66.80
2018-04-10T10:47:01.759Z,64.90
2018-04-10T10:49:29.250Z,65.00
2018-04-10T10:51:56.708Z,64.00
2018-04-10T10:54:24.240Z,63.20
2018-04-10T10:56:52.500Z,62.20
2018-04-10T10:59:20.004Z,62.20
2018-04-10T11:01:47.570Z,62.90
2018-04-10T11:04:15.039Z,63.00
2018-04-10T11:06:42.515Z,62.50
2018-04-10T11:09:09.980Z,62.80
2018-04-10T11:11:37.498Z,63.20
2018-04-10T11:14:04.954Z,63.00
2018-04-10T11:16:32.446Z,62.70
2018-04-10T11:18:59.918Z,62.60
2018-04-10T11:21:27.537Z,62.10
2018-04-10T11:23:54.995Z,60.40
2018-04-10T11:26:22.499Z,60.20
2018-04-10T11:28:49.958Z,60.20
2018-04-10T11:31:17.439Z,60.10
2018-04-10T11:33:45.663Z,60.30
2018-04-10T11:36:13.168Z,60.20
2018-04-10T11:38:41.387Z,60.90
2018-04-10T11:41:08.865Z,60.80
2018-04-10T11:43:36.334Z,61.10
2018-04-10T11:46:03.816Z,60.40
2018-04-10T11:48:31.347Z,57.50
2018-04-10T11:50:58.817Z,56.20
2018-04-10T11:53:26.281Z,57.50
2018-04-10T11:55:54.523Z,55.50
2018-04-10T11:58:21.980Z,55.40
2018-04-10T12:00:49.486Z,55.50
2018-04-10T12:03:17.718Z,55.90
2018-04-10T12:05:45.208Z,55.80
2018-04-10T12:08:13.460Z,55.60
2018-04-10T12:10:41.717Z,55.30
2018-04-10T12:13:09.202Z,55.20
2018-04-10T12:15:36.808Z,54.10
2018-04-10T12:18:04.275Z,54.80
2018-04-10T12:20:31.758Z,54.70
2018-04-10T12:22:59.240Z,54.50
2018-04-10T12:25:27.503Z,54.90
2018-04-10T12:27:55.007Z,54.30
2018-04-10T12:30:22.480Z,53.50
2018-04-10T12:32:49.960Z,53.20
2018-04-10T12:35:17.459Z,52.70
2018-04-10T12:37:45.693Z,51.00
2018-04-10T12:40:13.168Z,51.00
2018-04-10T12:42:40.669Z,50.50
2018-04-10T12:45:08.161Z,50.60
2018-04-10T12:47:35.648Z,50.40
2018-04-10T12:50:03.151Z,50.00
2018-04-10T12:52:30.684Z,50.60
2018-04-10T12:54:58.905Z,49.50
2018-04-10T12:57:26.392Z,49.50
2018-04-10T12:59:53.852Z,49.60
2018-04-10T13:02:21.355Z,49.70
2018-04-10T13:04:48.891Z,50.00
2018-04-10T13:07:17.144Z,50.10
2018-04-10T13:09:44.612Z,50.20
2018-04-10T13:12:12.870Z,48.80
2018-04-10T13:14:40.373Z,48.70
2018-04-10T13:17:07.852Z,48.70
2018-04-10T13:19:35.357Z,48.10
2018-04-10T13:22:03.604Z,48.50
2018-04-10T13:24:31.082Z,48.40
2018-04-10T13:26:58.562Z,48.00
2018-04-10T13:29:26.792Z,47.80
2018-04-10T13:31:54.295Z,47.80
2018-04-10T13:34:21.783Z,46.80
2018-04-10T13:36:49.259Z,47.20
2018-04-10T13:39:16.711Z,46.10
2018-04-10T13:41:45.089Z,45.90
2018-04-10T13:44:12.623Z,46.10
2018-04-10T13:46:40.104Z,45.20
2018-04-10T13:49:07.567Z,45.40
2018-04-10T13:51:35.251Z,44.30
2018-04-10T13:54:02.731Z,44.40
2018-04-10T13:56:30.979Z,43.10
2018-04-10T13:58:58.493Z,43.00
2018-04-10T14:01:25.976Z,43.10
2018-04-10T14:03:53.440Z,41.90
2018-04-10T14:06:21.090Z,40.80
2018-04-10T14:08:48.551Z,40.20
2018-04-10T14:11:16.144Z,40.50
2018-04-10T14:13:44.366Z,41.50
2018-04-10T14:16:11.851Z,41.40
2018-04-10T14:18:39.311Z,41.70
2018-04-10T14:21:06.878Z,41.80
2018-04-10T14:23:35.119Z,42.00
2018-04-10T14:26:02.599Z,42.00
2018-04-10T14:28:30.073Z,42.50
2018-04-10T14:30:57.551Z,43.10
2018-04-10T14:33:25.023Z,44.50
2018-04-10T14:35:52.506Z,43.70
2018-04-10T14:38:19.965Z,44.10
2018-04-10T14:40:47.464Z,44.60
2018-04-10T14:43:14.938Z,45.60
2018-04-10T14:45:42.427Z,46.30
2018-04-10T14:48:09.979Z,46.80
2018-04-10T14:50:37.501Z,46.90
2018-04-10T14:53:05.729Z,47.70
2018-04-10T14:55:33.243Z,47.60
2018-04-10T14:58:01.489Z,48.30
2018-04-10T15:00:28.959Z,48.30
2018-04-10T15:02:56.453Z,48.20
2018-04-10T15:05:23.945Z,49.10
2018-04-10T15:07:51.429Z,49.70
2018-04-10T15:10:18.899Z,49.80
2018-04-10T15:12:47.153Z,49.70
2018-04-10T15:15:15.441Z,49.60
2018-04-10T15:17:43.124Z,49.60
2018-04-10T15:20:11.350Z,50.10
2018-04-10T15:22:38.837Z,50.00
2018-04-10T15:25:06.304Z,50.50
2018-04-10T15:27:34.612Z,52.20
2018-04-10T15:30:02.080Z,51.50
2018-04-10T15:32:29.586Z,51.60
2018-04-10T15:34:57.059Z,52.20
2018-04-10T15:37:25.300Z,52.90
2018-04-10T15:39:52.796Z,52.90
2018-04-10T15:42:21.066Z,53.30
2018-04-10T15:44:49.346Z,53.60
2018-04-10T15:47:17.626Z,53.80
2018-04-10T15:49:45.862Z,54.10
2018-04-10T15:52:13.366Z,54.10
2018-04-10T15:54:40.866Z,54.30
2018-04-10T15:57:08.345Z,54.60
2018-04-10T15:59:35.806Z,54.80
2018-04-10T16:02:03.409Z,55.50
2018-04-10T16:04:30.977Z,57.80
2018-04-10T16:06:58.437Z,58.70
2018-04-10T16:09:25.916Z,59.40
2018-04-10T16:11:53.399Z,59.70
2018-04-10T16:14:21.141Z,60.30
2018-04-10T16:16:48.650Z,60.30
2018-04-10T16:19:16.199Z,60.90
2018-04-10T16:21:44.433Z,61.80
2018-04-10T16:24:12.591Z,61.80
2018-04-10T16:26:40.065Z,62.30
2018-04-10T16:29:08.365Z,62.90
2018-04-10T16:31:36.683Z,63.70
2018-04-10T16:34:04.156Z,63.10
2018-04-10T16:36:31.621Z,63.30
2018-04-10T16:38:59.102Z,63.30
2018-04-10T16:41:26.581Z,63.20
2018-04-10T16:43:54.838Z,63.10
2018-04-10T16:46:22.302Z,63.00
2018-04-10T16:48:50.566Z,63.30
2018-04-10T16:51:18.091Z,63.30
2018-04-10T16:53:45.568Z,63.50
2018-04-10T16:56:13.140Z,63.70
2018-04-10T16:58:40.654Z,63.80
2018-04-10T17:01:08.168Z,64.00
2018-04-10T17:03:35.680Z,64.40
2018-04-10T17:06:03.173Z,64.50
2018-04-10T17:08:30.682Z,64.80
2018-04-10T17:10:58.155Z,65.80
2018-04-10T17:13:25.628Z,67.50
2018-04-10T17:15:53.124Z,68.50
2018-04-10T17:18:21.346Z,70.00
2018-04-10T17:20:48.845Z,70.00
2018-04-10T17:23:16.295Z,70.60
2018-04-10T17:25:45.297Z,70.50
2018-04-10T17:28:12.813Z,70.40
2018-04-10T17:30:40.406Z,70.10
2018-04-10T17:33:08.636Z,69.50
2018-04-10T17:35:36.139Z,69.50
2018-04-10T17:38:04.098Z,68.80
2018-04-10T17:40:31.571Z,68.50
2018-04-10T17:42:59.802Z,69.30
2018-04-10T17:45:27.326Z,69.30
2018-04-10T17:47:55.558Z,69.40
2018-04-10T17:50:23.099Z,69.30
2018-04-10T17:52:50.562Z,69.30
2018-04-10T17:55:18.017Z,69.50
2018-04-10T17:57:45.534Z,69.30
2018-04-10T18:00:13.760Z,69.00
2018-04-10T18:02:41.282Z,69.00
2018-04-10T18:05:08.755Z,68.70
2018-04-10T18:07:36.276Z,68.90
2018-04-10T18:10:03.817Z,69.30
2018-04-10T18:12:32.090Z,71.20
2018-04-10T18:15:00.330Z,75.40
2018-04-10T18:17:27.806Z,74.70
2018-04-10T18:19:55.295Z,74.80
2018-04-10T18:22:23.567Z,75.20
2018-04-10T18:24:51.796Z,74.50
2018-04-10T18:27:19.280Z,74.40
2018-04-10T18:29:46.736Z,73.60
2018-04-10T18:32:14.228Z,74.00
2018-04-10T18:34:42.469Z,73.00
2018-04-10T18:37:09.972Z,73.00
2018-04-10T18:39:37.463Z,73.00
2018-04-10T18:42:04.946Z,73.00
2018-04-10T18:44:32.477Z,72.80
2018-04-10T18:46:59.967Z,72.80
2018-04-10T18:49:27.421Z,73.00
2018-04-10T18:51:56.534Z,73.50
2018-04-10T18:54:25.008Z,74.00
2018-04-10T18:56:52.786Z,74.00
2018-04-10T18:59:21.026Z,74.50
2018-04-10T19:01:48.537Z,74.30
2018-04-10T19:04:16.093Z,74.60
2018-04-10T19:06:43.571Z,74.30
2018-04-10T19:09:11.117Z,74.40
2018-04-10T19:11:38.592Z,74.40
2018-04-10T19:14:06.080Z,74.40
2018-04-10T19:16:33.758Z,74.30
2018-04-10T19:19:01.235Z,74.40
2018-04-10T19:21:29.316Z,74.80
2018-04-10T19:23:56.840Z,75.00
2018-04-10T19:26:24.332Z,75.10
2018-04-10T19:28:51.852Z,75.30
2018-04-10T19:31:19.323Z,75.50
2018-04-10T19:33:47.577Z,76.00
2018-04-10T19:36:15.086Z,76.00
2018-04-10T19:38:42.573Z,76.00
2018-04-10T19:41:10.076Z,76.00
2018-04-10T19:43:38.390Z,76.80
2018-04-10T19:46:05.891Z,76.80
2018-04-10T19:48:33.371Z,77.00
2018-04-10T19:51:00.875Z,77.80
2018-04-10T19:53:28.332Z,78.10
2018-04-10T19:55:55.825Z,78.30
2018-04-10T19:58:23.482Z,78.80
2018-04-10T20:00:51.010Z,79.20
2018-04-10T20:03:18.557Z,79.70
2018-04-10T20:05:46.051Z,80.30
2018-04-10T20:08:13.512Z,81.00
2018-04-10T20:10:41.001Z,81.50
2018-04-10T20:13:09.259Z,83.20
2018-04-10T20:15:36.756Z,83.10
2018-04-10T20:18:04.305Z,84.10
2018-04-10T20:20:32.559Z,83.30
2018-04-10T20:23:00.020Z,83.40
2018-04-10T20:25:33.466Z,83.30
2018-04-10T20:28:01.041Z,84.40
2018-04-10T20:30:28.548Z,83.70
2018-04-10T20:32:56.846Z,85.30
2018-04-10T20:35:24.342Z,85.20
2018-04-10T20:37:52.210Z,86.40
2018-04-10T20:40:19.713Z,87.30
2018-04-10T20:42:47.957Z,90.40
2018-04-10T20:45:15.446Z,90.40
2018-04-10T20:47:42.939Z,90.90
2018-04-10T20:50:11.039Z,91.30
2018-04-10T20:52:38.592Z,92.20
2018-04-10T20:55:06.073Z,92.50
2018-04-10T20:57:34.082Z,92.60
2018-04-10T21:00:01.544Z,92.20
2018-04-10T21:02:29.150Z,93.50
2018-04-10T21:04:56.705Z,93.70
2018-04-10T21:07:24.183Z,93.90
2018-04-10T21:09:52.418Z,94.40
2018-04-10T21:12:19.928Z,94.40
2018-04-10T21:14:47.395Z,94.20
2018-04-10T21:17:15.066Z,94.40
2018-04-10T21:19:42.528Z,94.30
2018-04-10T21:22:10.046Z,94.30
2018-04-10T21:24:38.304Z,94.20
2018-04-10T21:27:05.815Z,94.10
2018-04-10T21:29:33.277Z,94.20
2018-04-10T21:32:00.761Z,94.30
2018-04-10T21:34:28.239Z,94.40
2018-04-10T21:36:55.707Z,94.30
2018-04-10T21:39:23.289Z,94.50
2018-04-10T21:41:50.759Z,94.30
2018-04-10T21:44:18.291Z,94.90
2018-04-10T21:46:46.515Z,94.70
2018-04-10T21:49:14.013Z,94.70
2018-04-10T21:51:42.009Z,94.30
2018-04-10T21:54:09.517Z,94.90
2018-04-10T21:56:36.978Z,94.90
2018-04-10T21:59:04.467Z,94.70
2018-04-10T22:01:32.726Z,94.80
2018-04-10T22:04:00.202Z,94.80
2018-04-10T22:06:28.484Z,95.40
2018-04-10T22:08:56.733Z,95.00
2018-04-10T22:11:24.339Z,94.90
2018-04-10T22:13:52.516Z,95.00
2018-04-10T22:16:20.039Z,95.00
2018-04-10T22:18:48.931Z,95.40
2018-04-10T22:21:17.171Z,95.30
2018-04-10T22:23:44.765Z,95.20
2018-04-10T22:26:13.003Z,95.40
2018-04-10T22:28:40.479Z,95.40
2018-04-10T22:31:08.063Z,95.20
2018-04-10T22:33:36.263Z,95.10
2018-04-10T22:36:03.750Z,95.10
2018-04-10T22:38:31.229Z,95.50
2018-04-10T22:40:59.511Z,95.20
2018-04-10T22:43:27.011Z,95.20
2018-04-10T22:45:54.548Z,95.60
2018-04-10T22:48:22.012Z,95.40
2018-04-10T22:50:49.514Z,95.60
2018-04-10T22:53:17.000Z,95.80
2018-04-10T22:55:44.495Z,96.50
2018-04-10T22:58:12.015Z,96.50
2018-04-10T23:00:54.375Z,96.20
2018-04-10T23:03:21.854Z,96.40
2018-04-10T23:05:50.144Z,96.50
2018-04-10T23:08:18.378Z,96.60
2018-04-10T23:10:48.337Z,96.50
2018-04-10T23:13:15.991Z,96.40
2018-04-10T23:15:44.450Z,96.30
2018-04-10T23:18:11.967Z,96.30
2018-04-10T23:20:39.442Z,96.20
2018-04-10T23:23:06.908Z,96.40
2018-04-10T23:25:34.388Z,96.60
2018-04-10T23:28:01.879Z,96.60
2018-04-10T23:30:29.383Z,96.60
2018-04-10T23:32:56.895Z,96.20
2018-04-10T23:35:24.359Z,96.40
2018-04-10T23:37:52.679Z,96.40
2018-04-10T23:40:20.444Z,96.30
2018-04-10T23:42:47.963Z,96.00
2018-04-10T23:45:16.286Z,96.40
2018-04-10T23:47:43.772Z,96.40
2018-04-10T23:50:11.256Z,96.30
2018-04-10T23:52:38.724Z,96.20
2018-04-10T23:55:06.990Z,96.40
2018-04-10T23:57:35.229Z,96.40
